Airfield :
LOGIN :

Register | Disclaimer

   EN    FR    IT 

 










Legend :    VFR   Marginal VFR   IFR   Intensive IFR   Very Intensive IFR
Visi :
Ceiling :
>= 8 km
>= 3000ft
5 to 8 km
1000 to 3000 ft
1500m to 5 km
500 to 1000 ft
800 to 1500m
200 to 500 ft
< 800m
< 200 ft
Symbols :   Thunderstorms  Fog  Heavy snow  Heavy precipitations  Wind > 20 kt
SIGMETs :     Misc.  Thunderstorms  Icing  Turbulence  Mountain Waves  Volcanic Ashes







- Airport Elevation : 364 ft
- IATA code : FRA


EDDF - Frankfurt Int.

CURRENT METAR :
  • 201250Z 02007KT 320V050 9999 FEW028 SCT034 BKN120 04/M04 Q1017 NOSIG

EXPIRED METARs :
  • 201220Z 05005KT 360V130 9999 FEW028 BKN120 04/M03 Q1017 NOSIG
  • 201150Z 35004KT 320V020 9999 FEW024 SCT120 03/M03 Q1017 NOSIG
  • 201120Z VRB04KT 9999 FEW024 SCT034 03/M03 Q1017 NOSIG
  • 201050Z 04004KT 320V070 9999 FEW033 SCT110 03/M03 Q1017 NOSIG
  • 201020Z 02005KT 320V050 9999 FEW018 SCT120 02/M03 Q1017 NOSIG

TAF TAF EDDF
Valid from the 20 at 12:00 until the 21 at 18:00 UTC


201100Z 2012/2118 03007KT 9999 FEW025
TEMPO 2012/2106 BKN030
No reported NOTAMs for that airfield.



MET'MAP, your aeronautical weather chart ! - Copyright ORBIFLY December 2007 - Disclaimer

ORBIFLY MET'MAP TEAM :

Programming & Development : Alexandra Zaïnal
Concept & Development : Baudouin d'Aumeries
Co-Development & Prog : Marc-Olivier Méhu
Technical & hardware support : Manuel Goepfert

Contact : metmap@orbifly.com




SOURCES & CREDITS :

   NOAA